sensor_id;sensor_type;location;lat;lon;timestamp;P1;durP1;ratioP1;P2;durP2;ratioP2
70588;SDS011;58152;49.202;18.744;2022-10-13T00:01:12;15.48;;;13.15;;
70588;SDS011;58152;49.202;18.744;2022-10-13T00:04:07;20.67;;;13.25;;
70588;SDS011;58152;49.202;18.744;2022-10-13T00:10:46;18.67;;;14.50;;
70588;SDS011;58152;49.202;18.744;2022-10-13T00:13:32;18.50;;;14.23;;
70588;SDS011;58152;49.202;18.744;2022-10-13T00:24:18;19.20;;;13.73;;
70588;SDS011;58152;49.202;18.744;2022-10-13T00:33:34;19.20;;;14.23;;
70588;SDS011;58152;49.202;18.744;2022-10-13T00:36:39;13.18;;;11.75;;
70588;SDS011;58152;49.202;18.744;2022-10-13T00:46:32;18.10;;;13.73;;
70588;SDS011;58152;49.202;18.744;2022-10-13T01:25:53;19.90;;;15.00;;
70588;SDS011;58152;49.202;18.744;2022-10-13T01:29:19;20.52;;;14.93;;
70588;SDS011;58152;49.202;18.744;2022-10-13T01:32:10;17.35;;;14.13;;
70588;SDS011;58152;49.202;18.744;2022-10-13T01:38:51;18.98;;;14.60;;
70588;SDS011;58152;49.202;18.744;2022-10-13T01:41:48;19.30;;;14.90;;
70588;SDS011;58152;49.202;18.744;2022-10-13T01:44:59;17.33;;;14.23;;
70588;SDS011;58152;49.202;18.744;2022-10-13T01:58:15;17.98;;;14.57;;
70588;SDS011;58152;49.202;18.744;2022-10-13T02:00:55;19.05;;;13.57;;
70588;SDS011;58152;49.202;18.744;2022-10-13T02:06:58;19.85;;;15.07;;
70588;SDS011;58152;49.202;18.744;2022-10-13T02:16:14;19.73;;;14.60;;
70588;SDS011;58152;49.202;18.744;2022-10-13T02:19:10;18.85;;;14.45;;
70588;SDS011;58152;49.202;18.744;2022-10-13T02:22:09;20.75;;;15.85;;
70588;SDS011;58152;49.202;18.744;2022-10-13T02:24:56;22.27;;;15.60;;
70588;SDS011;58152;49.202;18.744;2022-10-13T02:27:50;20.70;;;15.88;;
70588;SDS011;58152;49.202;18.744;2022-10-13T02:30:30;19.00;;;15.20;;
70588;SDS011;58152;49.202;18.744;2022-10-13T02:37:00;16.38;;;13.45;;
70588;SDS011;58152;49.202;18.744;2022-10-13T02:46:05;20.60;;;15.02;;
70588;SDS011;58152;49.202;18.744;2022-10-13T02:48:40;20.67;;;15.18;;
70588;SDS011;58152;49.202;18.744;2022-10-13T02:51:11;18.98;;;14.98;;
70588;SDS011;58152;49.202;18.744;2022-10-13T02:53:47;19.00;;;14.77;;
70588;SDS011;58152;49.202;18.744;2022-10-13T03:06:42;16.90;;;13.65;;
70588;SDS011;58152;49.202;18.744;2022-10-13T03:11:42;16.73;;;12.90;;
70588;SDS011;58152;49.202;18.744;2022-10-13T03:14:07;18.85;;;14.43;;
70588;SDS011;58152;49.202;18.744;2022-10-13T03:16:38;19.90;;;12.95;;
70588;SDS011;58152;49.202;18.744;2022-10-13T03:19:23;22.63;;;14.85;;
70588;SDS011;58152;49.202;18.744;2022-10-13T03:21:55;23.05;;;16.45;;
70588;SDS011;58152;49.202;18.744;2022-10-13T03:27:58;19.42;;;13.85;;
70588;SDS011;58152;49.202;18.744;2022-10-13T03:34:22;19.48;;;14.35;;
70588;SDS011;58152;49.202;18.744;2022-10-13T03:36:50;18.80;;;14.25;;
70588;SDS011;58152;49.202;18.744;2022-10-13T03:42:11;19.55;;;14.55;;
70588;SDS011;58152;49.202;18.744;2022-10-13T03:51:21;18.67;;;14.27;;
70588;SDS011;58152;49.202;18.744;2022-10-13T03:53:50;20.48;;;14.27;;
70588;SDS011;58152;49.202;18.744;2022-10-13T03:56:25;20.45;;;14.18;;
70588;SDS011;58152;49.202;18.744;2022-10-13T03:59:11;20.63;;;15.57;;
70588;SDS011;58152;49.202;18.744;2022-10-13T04:01:43;22.45;;;15.52;;
70588;SDS011;58152;49.202;18.744;2022-10-13T04:04:17;20.08;;;14.73;;
70588;SDS011;58152;49.202;18.744;2022-10-13T04:10:39;19.10;;;13.48;;
70588;SDS011;58152;49.202;18.744;2022-10-13T04:13:10;22.83;;;15.82;;
70588;SDS011;58152;49.202;18.744;2022-10-13T04:15:44;20.95;;;16.08;;
70588;SDS011;58152;49.202;18.744;2022-10-13T04:18:12;19.83;;;15.48;;
70588;SDS011;58152;49.202;18.744;2022-10-13T04:24:22;21.73;;;15.45;;
70588;SDS011;58152;49.202;18.744;2022-10-13T04:26:53;22.20;;;14.60;;
70588;SDS011;58152;49.202;18.744;2022-10-13T04:29:19;22.02;;;15.45;;
70588;SDS011;58152;49.202;18.744;2022-10-13T04:35:16;21.63;;;13.93;;
70588;SDS011;58152;49.202;18.744;2022-10-13T04:37:47;20.58;;;13.90;;
70588;SDS011;58152;49.202;18.744;2022-10-13T04:40:28;20.13;;;14.77;;
70588;SDS011;58152;49.202;18.744;2022-10-13T04:53:22;18.73;;;13.60;;
70588;SDS011;58152;49.202;18.744;2022-10-13T04:56:14;19.63;;;14.32;;
70588;SDS011;58152;49.202;18.744;2022-10-13T04:59:10;21.27;;;15.40;;
70588;SDS011;58152;49.202;18.744;2022-10-13T05:01:59;20.73;;;14.50;;
70588;SDS011;58152;49.202;18.744;2022-10-13T05:04:25;18.77;;;14.85;;
70588;SDS011;58152;49.202;18.744;2022-10-13T05:06:51;19.25;;;15.02;;
70588;SDS011;58152;49.202;18.744;2022-10-13T05:09:16;25.27;;;17.77;;
70588;SDS011;58152;49.202;18.744;2022-10-13T05:11:44;22.10;;;16.13;;
70588;SDS011;58152;49.202;18.744;2022-10-13T05:14:10;23.48;;;16.00;;
70588;SDS011;58152;49.202;18.744;2022-10-13T05:16:35;19.58;;;14.23;;
70588;SDS011;58152;49.202;18.744;2022-10-13T05:19:01;19.75;;;14.38;;
70588;SDS011;58152;49.202;18.744;2022-10-13T05:21:27;19.67;;;14.32;;
70588;SDS011;58152;49.202;18.744;2022-10-13T05:23:54;20.20;;;14.32;;
70588;SDS011;58152;49.202;18.744;2022-10-13T05:26:22;20.63;;;14.98;;
70588;SDS011;58152;49.202;18.744;2022-10-13T05:29:01;18.30;;;14.60;;
70588;SDS011;58152;49.202;18.744;2022-10-13T05:31:27;18.77;;;14.88;;
70588;SDS011;58152;49.202;18.744;2022-10-13T05:33:56;20.52;;;15.20;;
70588;SDS011;58152;49.202;18.744;2022-10-13T05:36:30;22.30;;;15.43;;
70588;SDS011;58152;49.202;18.744;2022-10-13T05:39:08;18.45;;;13.88;;
70588;SDS011;58152;49.202;18.744;2022-10-13T06:40:24;17.70;;;13.13;;
70588;SDS011;58152;49.202;18.744;2022-10-13T06:49:31;19.10;;;13.13;;
70588;SDS011;58152;49.202;18.744;2022-10-13T06:52:02;20.60;;;14.60;;
70588;SDS011;58152;49.202;18.744;2022-10-13T06:54:45;302.67;;;207.47;;
70588;SDS011;58152;49.202;18.744;2022-10-13T07:00:02;350.77;;;236.95;;
70588;SDS011;58152;49.202;18.744;2022-10-13T07:02:32;177.43;;;118.75;;
70588;SDS011;58152;49.202;18.744;2022-10-13T07:15:11;21.50;;;16.08;;
70588;SDS011;58152;49.202;18.744;2022-10-13T07:17:37;20.70;;;14.15;;
70588;SDS011;58152;49.202;18.744;2022-10-13T07:25:50;21.95;;;14.63;;
70588;SDS011;58152;49.202;18.744;2022-10-13T07:31:56;20.05;;;14.38;;
70588;SDS011;58152;49.202;18.744;2022-10-13T07:34:30;19.17;;;13.80;;
70588;SDS011;58152;49.202;18.744;2022-10-13T07:40:03;18.13;;;13.82;;
70588;SDS011;58152;49.202;18.744;2022-10-13T07:42:46;21.50;;;15.38;;
70588;SDS011;58152;49.202;18.744;2022-10-13T07:45:19;20.92;;;14.32;;
70588;SDS011;58152;49.202;18.744;2022-10-13T07:50:55;23.30;;;15.57;;
70588;SDS011;58152;49.202;18.744;2022-10-13T07:53:23;19.98;;;14.32;;
70588;SDS011;58152;49.202;18.744;2022-10-13T07:55:54;18.88;;;13.60;;
70588;SDS011;58152;49.202;18.744;2022-10-13T08:06:06;20.17;;;13.85;;
70588;SDS011;58152;49.202;18.744;2022-10-13T08:26:03;17.08;;;12.30;;
70588;SDS011;58152;49.202;18.744;2022-10-13T08:29:08;14.93;;;10.93;;
70588;SDS011;58152;49.202;18.744;2022-10-13T08:31:39;17.60;;;12.52;;
70588;SDS011;58152;49.202;18.744;2022-10-13T08:34:19;19.90;;;13.73;;
70588;SDS011;58152;49.202;18.744;2022-10-13T08:36:48;18.63;;;13.35;;
70588;SDS011;58152;49.202;18.744;2022-10-13T08:39:23;21.75;;;13.30;;
70588;SDS011;58152;49.202;18.744;2022-10-13T08:41:58;18.60;;;13.65;;
70588;SDS011;58152;49.202;18.744;2022-10-13T08:44:35;17.45;;;13.00;;
70588;SDS011;58152;49.202;18.744;2022-10-13T08:56:43;15.23;;;11.57;;
70588;SDS011;58152;49.202;18.744;2022-10-13T08:59:17;17.75;;;12.43;;
70588;SDS011;58152;49.202;18.744;2022-10-13T09:01:53;16.33;;;12.85;;
70588;SDS011;58152;49.202;18.744;2022-10-13T09:05:02;19.15;;;12.50;;
70588;SDS011;58152;49.202;18.744;2022-10-13T09:10:21;14.13;;;11.68;;
70588;SDS011;58152;49.202;18.744;2022-10-13T09:12:52;16.15;;;11.75;;
70588;SDS011;58152;49.202;18.744;2022-10-13T09:15:18;17.75;;;13.05;;
70588;SDS011;58152;49.202;18.744;2022-10-13T09:17:47;18.90;;;14.95;;
70588;SDS011;58152;49.202;18.744;2022-10-13T09:20:33;19.40;;;12.68;;
70588;SDS011;58152;49.202;18.744;2022-10-13T09:23:03;18.42;;;12.63;;
70588;SDS011;58152;49.202;18.744;2022-10-13T09:25:40;19.17;;;15.38;;
70588;SDS011;58152;49.202;18.744;2022-10-13T09:31:48;15.73;;;12.15;;
70588;SDS011;58152;49.202;18.744;2022-10-13T09:52:52;17.50;;;11.48;;
70588;SDS011;58152;49.202;18.744;2022-10-13T10:11:27;16.20;;;11.48;;
70588;SDS011;58152;49.202;18.744;2022-10-13T10:20:04;16.15;;;10.43;;
70588;SDS011;58152;49.202;18.744;2022-10-13T10:33:50;13.60;;;10.18;;
70588;SDS011;58152;49.202;18.744;2022-10-13T10:44:49;17.33;;;12.05;;
70588;SDS011;58152;49.202;18.744;2022-10-13T10:47:27;13.23;;;11.02;;
70588;SDS011;58152;49.202;18.744;2022-10-13T10:50:20;15.80;;;11.35;;
70588;SDS011;58152;49.202;18.744;2022-10-13T10:53:04;13.95;;;10.73;;
70588;SDS011;58152;49.202;18.744;2022-10-13T10:55:53;14.77;;;11.13;;
70588;SDS011;58152;49.202;18.744;2022-10-13T10:58:33;14.38;;;10.52;;
70588;SDS011;58152;49.202;18.744;2022-10-13T11:03:54;14.50;;;10.93;;
70588;SDS011;58152;49.202;18.744;2022-10-13T11:06:35;12.85;;;10.25;;
70588;SDS011;58152;49.202;18.744;2022-10-13T11:09:13;17.67;;;12.20;;
70588;SDS011;58152;49.202;18.744;2022-10-13T11:15:13;13.48;;;10.20;;
70588;SDS011;58152;49.202;18.744;2022-10-13T11:31:25;18.15;;;9.95;;
70588;SDS011;58152;49.202;18.744;2022-10-13T11:33:59;13.77;;;9.57;;
70588;SDS011;58152;49.202;18.744;2022-10-13T11:46:03;15.75;;;10.55;;
70588;SDS011;58152;49.202;18.744;2022-10-13T12:01:28;17.52;;;8.68;;
70588;SDS011;58152;49.202;18.744;2022-10-13T12:07:55;13.48;;;10.48;;
70588;SDS011;58152;49.202;18.744;2022-10-13T12:21:46;12.65;;;9.35;;
70588;SDS011;58152;49.202;18.744;2022-10-13T12:34:55;14.18;;;9.35;;
70588;SDS011;58152;49.202;18.744;2022-10-13T13:11:39;9.70;;;8.68;;
70588;SDS011;58152;49.202;18.744;2022-10-13T13:41:30;10.20;;;9.13;;
70588;SDS011;58152;49.202;18.744;2022-10-13T13:55:22;11.63;;;9.00;;
70588;SDS011;58152;49.202;18.744;2022-10-13T14:16:36;10.20;;;8.85;;
70588;SDS011;58152;49.202;18.744;2022-10-13T14:18:47;10.77;;;9.52;;
70588;SDS011;58152;49.202;18.744;2022-10-13T14:21:23;11.05;;;9.38;;
70588;SDS011;58152;49.202;18.744;2022-10-13T14:23:48;13.32;;;10.25;;
70588;SDS011;58152;49.202;18.744;2022-10-13T14:26:14;12.25;;;10.95;;
70588;SDS011;58152;49.202;18.744;2022-10-13T14:28:40;15.30;;;12.80;;
70588;SDS011;58152;49.202;18.744;2022-10-13T14:31:07;22.67;;;19.15;;
70588;SDS011;58152;49.202;18.744;2022-10-13T14:33:33;20.42;;;18.35;;
70588;SDS011;58152;49.202;18.744;2022-10-13T14:36:02;20.48;;;17.33;;
70588;SDS011;58152;49.202;18.744;2022-10-13T14:38:29;14.98;;;12.43;;
70588;SDS011;58152;49.202;18.744;2022-10-13T14:40:58;12.65;;;10.10;;
70588;SDS011;58152;49.202;18.744;2022-10-13T14:43:25;13.68;;;10.73;;
70588;SDS011;58152;49.202;18.744;2022-10-13T14:45:51;11.25;;;9.77;;
70588;SDS011;58152;49.202;18.744;2022-10-13T14:48:16;12.43;;;8.43;;
70588;SDS011;58152;49.202;18.744;2022-10-13T14:50:53;11.02;;;8.77;;
70588;SDS011;58152;49.202;18.744;2022-10-13T14:56:39;18.83;;;16.85;;
70588;SDS011;58152;49.202;18.744;2022-10-13T15:02:42;15.40;;;13.10;;
70588;SDS011;58152;49.202;18.744;2022-10-13T15:20:34;11.25;;;9.93;;
70588;SDS011;58152;49.202;18.744;2022-10-13T15:22:59;123.60;;;96.30;;
70588;SDS011;58152;49.202;18.744;2022-10-13T15:25:42;73.95;;;55.78;;
70588;SDS011;58152;49.202;18.744;2022-10-13T15:28:36;33.47;;;26.05;;
70588;SDS011;58152;49.202;18.744;2022-10-13T16:46:35;21.65;;;14.23;;
70588;SDS011;58152;49.202;18.744;2022-10-13T16:49:04;16.63;;;13.23;;
70588;SDS011;58152;49.202;18.744;2022-10-13T16:51:29;14.55;;;12.02;;
70588;SDS011;58152;49.202;18.744;2022-10-13T16:53:58;14.27;;;10.90;;
70588;SDS011;58152;49.202;18.744;2022-10-13T16:56:25;16.83;;;11.23;;
70588;SDS011;58152;49.202;18.744;2022-10-13T16:58:55;16.83;;;12.07;;
70588;SDS011;58152;49.202;18.744;2022-10-13T17:01:28;17.92;;;12.15;;
70588;SDS011;58152;49.202;18.744;2022-10-13T17:07:30;12.70;;;11.25;;
70588;SDS011;58152;49.202;18.744;2022-10-13T17:10:05;16.85;;;12.60;;
70588;SDS011;58152;49.202;18.744;2022-10-13T17:15:08;18.30;;;12.97;;
70588;SDS011;58152;49.202;18.744;2022-10-13T17:17:34;35.75;;;24.38;;
70588;SDS011;58152;49.202;18.744;2022-10-13T17:19:59;30.70;;;23.67;;
70588;SDS011;58152;49.202;18.744;2022-10-13T17:22:25;28.00;;;19.17;;
70588;SDS011;58152;49.202;18.744;2022-10-13T17:24:50;21.13;;;16.27;;
70588;SDS011;58152;49.202;18.744;2022-10-13T17:27:16;22.25;;;15.68;;
70588;SDS011;58152;49.202;18.744;2022-10-13T17:29:44;18.17;;;14.45;;
70588;SDS011;58152;49.202;18.744;2022-10-13T17:32:12;19.77;;;14.93;;
70588;SDS011;58152;49.202;18.744;2022-10-13T17:34:41;19.10;;;14.80;;
70588;SDS011;58152;49.202;18.744;2022-10-13T17:37:22;21.70;;;16.08;;
70588;SDS011;58152;49.202;18.744;2022-10-13T17:39:50;18.90;;;15.00;;
70588;SDS011;58152;49.202;18.744;2022-10-13T17:42:19;20.45;;;15.75;;
70588;SDS011;58152;49.202;18.744;2022-10-13T17:44:46;18.70;;;15.40;;
70588;SDS011;58152;49.202;18.744;2022-10-13T17:47:13;20.55;;;16.50;;
70588;SDS011;58152;49.202;18.744;2022-10-13T17:49:46;21.08;;;15.88;;
70588;SDS011;58152;49.202;18.744;2022-10-13T17:52:12;20.90;;;16.52;;
70588;SDS011;58152;49.202;18.744;2022-10-13T17:54:38;22.08;;;17.48;;
70588;SDS011;58152;49.202;18.744;2022-10-13T17:57:03;22.88;;;17.30;;
70588;SDS011;58152;49.202;18.744;2022-10-13T17:59:29;22.65;;;17.75;;
70588;SDS011;58152;49.202;18.744;2022-10-13T18:01:55;21.80;;;17.73;;
70588;SDS011;58152;49.202;18.744;2022-10-13T18:04:20;33.90;;;28.30;;
70588;SDS011;58152;49.202;18.744;2022-10-13T18:06:47;33.83;;;24.90;;
70588;SDS011;58152;49.202;18.744;2022-10-13T18:09:19;27.67;;;21.70;;
70588;SDS011;58152;49.202;18.744;2022-10-13T18:11:48;29.25;;;20.42;;
70588;SDS011;58152;49.202;18.744;2022-10-13T18:17:21;22.33;;;18.80;;
70588;SDS011;58152;49.202;18.744;2022-10-13T18:19:50;28.90;;;20.85;;
70588;SDS011;58152;49.202;18.744;2022-10-13T18:22:27;26.85;;;20.20;;
70588;SDS011;58152;49.202;18.744;2022-10-13T18:24:55;23.98;;;17.98;;
70588;SDS011;58152;49.202;18.744;2022-10-13T18:27:23;33.47;;;23.27;;
70588;SDS011;58152;49.202;18.744;2022-10-13T18:29:49;40.25;;;31.88;;
70588;SDS011;58152;49.202;18.744;2022-10-13T18:32:25;28.55;;;23.02;;
70588;SDS011;58152;49.202;18.744;2022-10-13T18:34:53;29.63;;;21.20;;
70588;SDS011;58152;49.202;18.744;2022-10-13T18:37:27;25.80;;;20.38;;
70588;SDS011;58152;49.202;18.744;2022-10-13T18:46:52;24.52;;;17.05;;
70588;SDS011;58152;49.202;18.744;2022-10-13T18:49:26;32.13;;;24.27;;
70588;SDS011;58152;49.202;18.744;2022-10-13T19:06:28;27.73;;;21.80;;
70588;SDS011;58152;49.202;18.744;2022-10-13T19:09:17;28.33;;;22.58;;
70588;SDS011;58152;49.202;18.744;2022-10-13T19:25:26;32.08;;;22.00;;
70588;SDS011;58152;49.202;18.744;2022-10-13T19:28:12;28.92;;;21.77;;
70588;SDS011;58152;49.202;18.744;2022-10-13T19:34:16;33.60;;;25.73;;
70588;SDS011;58152;49.202;18.744;2022-10-13T19:47:17;27.95;;;23.35;;
70588;SDS011;58152;49.202;18.744;2022-10-13T19:49:47;34.67;;;25.05;;
70588;SDS011;58152;49.202;18.744;2022-10-13T19:52:23;30.65;;;23.40;;
70588;SDS011;58152;49.202;18.744;2022-10-13T19:58:42;30.35;;;22.77;;
70588;SDS011;58152;49.202;18.744;2022-10-13T20:01:18;27.98;;;23.42;;
70588;SDS011;58152;49.202;18.744;2022-10-13T20:04:21;26.65;;;22.70;;
70588;SDS011;58152;49.202;18.744;2022-10-13T20:10:22;36.38;;;26.38;;
70588;SDS011;58152;49.202;18.744;2022-10-13T20:20:11;34.72;;;24.70;;
70588;SDS011;58152;49.202;18.744;2022-10-13T20:23:12;34.90;;;22.58;;
70588;SDS011;58152;49.202;18.744;2022-10-13T20:25:53;34.63;;;24.85;;
70588;SDS011;58152;49.202;18.744;2022-10-13T20:28:59;41.40;;;30.08;;
70588;SDS011;58152;49.202;18.744;2022-10-13T20:31:48;47.05;;;33.83;;
70588;SDS011;58152;49.202;18.744;2022-10-13T20:45:25;39.40;;;27.98;;
70588;SDS011;58152;49.202;18.744;2022-10-13T20:48:09;39.92;;;30.73;;
70588;SDS011;58152;49.202;18.744;2022-10-13T21:11:27;33.10;;;26.95;;
70588;SDS011;58152;49.202;18.744;2022-10-13T21:13:53;34.75;;;28.20;;
70588;SDS011;58152;49.202;18.744;2022-10-13T21:19:42;41.33;;;29.35;;
70588;SDS011;58152;49.202;18.744;2022-10-13T21:25:27;38.25;;;30.52;;
70588;SDS011;58152;49.202;18.744;2022-10-13T21:27:53;42.97;;;32.58;;
70588;SDS011;58152;49.202;18.744;2022-10-13T21:30:21;45.38;;;32.63;;
70588;SDS011;58152;49.202;18.744;2022-10-13T21:32:52;45.72;;;31.35;;
70588;SDS011;58152;49.202;18.744;2022-10-13T21:39:23;37.75;;;28.02;;
70588;SDS011;58152;49.202;18.744;2022-10-13T21:41:53;38.25;;;28.20;;
70588;SDS011;58152;49.202;18.744;2022-10-13T21:44:29;34.83;;;27.73;;
70588;SDS011;58152;49.202;18.744;2022-10-13T21:46:57;35.75;;;27.55;;
70588;SDS011;58152;49.202;18.744;2022-10-13T21:52:37;37.00;;;27.40;;
70588;SDS011;58152;49.202;18.744;2022-10-13T21:55:10;34.03;;;26.20;;
70588;SDS011;58152;49.202;18.744;2022-10-13T21:57:42;36.38;;;28.67;;
70588;SDS011;58152;49.202;18.744;2022-10-13T22:03:35;40.17;;;31.65;;
70588;SDS011;58152;49.202;18.744;2022-10-13T22:06:05;43.92;;;31.33;;
70588;SDS011;58152;49.202;18.744;2022-10-13T22:08:37;36.92;;;29.55;;
70588;SDS011;58152;49.202;18.744;2022-10-13T22:14:10;36.60;;;27.85;;
70588;SDS011;58152;49.202;18.744;2022-10-13T22:19:14;36.33;;;26.98;;
70588;SDS011;58152;49.202;18.744;2022-10-13T22:25:19;37.10;;;28.48;;
70588;SDS011;58152;49.202;18.744;2022-10-13T22:31:03;34.35;;;26.15;;
70588;SDS011;58152;49.202;18.744;2022-10-13T22:33:33;40.10;;;30.20;;
70588;SDS011;58152;49.202;18.744;2022-10-13T22:36:04;42.67;;;30.08;;
70588;SDS011;58152;49.202;18.744;2022-10-13T22:38:33;40.20;;;30.60;;
70588;SDS011;58152;49.202;18.744;2022-10-13T22:41:07;40.25;;;30.13;;
70588;SDS011;58152;49.202;18.744;2022-10-13T22:43:43;40.67;;;30.05;;
70588;SDS011;58152;49.202;18.744;2022-10-13T22:46:13;39.30;;;30.33;;
70588;SDS011;58152;49.202;18.744;2022-10-13T22:48:44;39.65;;;29.75;;
70588;SDS011;58152;49.202;18.744;2022-10-13T22:51:24;46.45;;;32.97;;
70588;SDS011;58152;49.202;18.744;2022-10-13T22:54:07;45.88;;;31.33;;
70588;SDS011;58152;49.202;18.744;2022-10-13T22:56:45;39.58;;;31.02;;
70588;SDS011;58152;49.202;18.744;2022-10-13T22:59:10;42.25;;;31.70;;
70588;SDS011;58152;49.202;18.744;2022-10-13T23:01:38;40.97;;;31.73;;
70588;SDS011;58152;49.202;18.744;2022-10-13T23:04:03;41.97;;;32.35;;
70588;SDS011;58152;49.202;18.744;2022-10-13T23:06:32;39.70;;;30.67;;
70588;SDS011;58152;49.202;18.744;2022-10-13T23:09:08;37.17;;;30.48;;
70588;SDS011;58152;49.202;18.744;2022-10-13T23:11:55;39.50;;;28.13;;
70588;SDS011;58152;49.202;18.744;2022-10-13T23:14:20;35.53;;;28.58;;
70588;SDS011;58152;49.202;18.744;2022-10-13T23:16:46;38.80;;;29.50;;
70588;SDS011;58152;49.202;18.744;2022-10-13T23:19:17;40.08;;;29.08;;
70588;SDS011;58152;49.202;18.744;2022-10-13T23:22:06;40.00;;;28.55;;
70588;SDS011;58152;49.202;18.744;2022-10-13T23:24:31;34.90;;;27.80;;
70588;SDS011;58152;49.202;18.744;2022-10-13T23:27:15;36.97;;;28.98;;
70588;SDS011;58152;49.202;18.744;2022-10-13T23:29:50;35.13;;;27.98;;
70588;SDS011;58152;49.202;18.744;2022-10-13T23:32:18;37.90;;;28.73;;
70588;SDS011;58152;49.202;18.744;2022-10-13T23:34:47;35.15;;;28.92;;
70588;SDS011;58152;49.202;18.744;2022-10-13T23:37:39;40.75;;;29.65;;
70588;SDS011;58152;49.202;18.744;2022-10-13T23:40:07;38.42;;;29.75;;
70588;SDS011;58152;49.202;18.744;2022-10-13T23:42:33;40.65;;;30.35;;
70588;SDS011;58152;49.202;18.744;2022-10-13T23:45:02;35.67;;;27.10;;
70588;SDS011;58152;49.202;18.744;2022-10-13T23:47:33;36.58;;;27.73;;
70588;SDS011;58152;49.202;18.744;2022-10-13T23:49:58;37.70;;;28.25;;
70588;SDS011;58152;49.202;18.744;2022-10-13T23:52:24;35.88;;;27.70;;
70588;SDS011;58152;49.202;18.744;2022-10-13T23:55:00;38.70;;;29.20;;
70588;SDS011;58152;49.202;18.744;2022-10-13T23:57:26;37.08;;;28.58;;
70588;SDS011;58152;49.202;18.744;2022-10-13T23:59:58;37.90;;;28.92;;
